sensor_id;sensor_type;location;lat;lon;timestamp;pressure;altitude;pressure_sealevel;temperature
15544;BMP180;7873;52.230;12.856;2023-08-12T00:01:09;101238.75;;;24.87
15544;BMP180;7873;52.230;12.856;2023-08-12T00:03:36;101234.38;;;24.86
15544;BMP180;7873;52.230;12.856;2023-08-12T00:06:03;101240.59;;;24.86
15544;BMP180;7873;52.230;12.856;2023-08-12T00:08:30;101237.06;;;24.86
15544;BMP180;7873;52.230;12.856;2023-08-12T00:10:57;101237.22;;;24.84
15544;BMP180;7873;52.230;12.856;2023-08-12T00:13:25;101239.91;;;24.84
15544;BMP180;7873;52.230;12.856;2023-08-12T00:15:52;101240.78;;;24.85
15544;BMP180;7873;52.230;12.856;2023-08-12T00:18:18;101231.00;;;24.84
15544;BMP180;7873;52.230;12.856;2023-08-12T00:20:45;101221.22;;;24.83
15544;BMP180;7873;52.230;12.856;2023-08-12T00:23:12;101221.22;;;24.83
15544;BMP180;7873;52.230;12.856;2023-08-12T00:25:38;101226.44;;;24.84
15544;BMP180;7873;52.230;12.856;2023-08-12T00:28:05;101224.78;;;24.83
15544;BMP180;7873;52.230;12.856;2023-08-12T00:30:33;101219.38;;;24.83
15544;BMP180;7873;52.230;12.856;2023-08-12T00:33:00;101218.53;;;24.83
15544;BMP180;7873;52.230;12.856;2023-08-12T00:35:27;101213.16;;;24.83
15544;BMP180;7873;52.230;12.856;2023-08-12T00:37:54;101211.47;;;24.82
15544;BMP180;7873;52.230;12.856;2023-08-12T00:40:20;101205.25;;;24.81
15544;BMP180;7873;52.230;12.856;2023-08-12T00:42:47;101197.34;;;24.80
15544;BMP180;7873;52.230;12.856;2023-08-12T00:45:14;101197.19;;;24.81
15544;BMP180;7873;52.230;12.856;2023-08-12T00:47:42;101200.03;;;24.80
15544;BMP180;7873;52.230;12.856;2023-08-12T00:50:10;101195.50;;;24.80
15544;BMP180;7873;52.230;12.856;2023-08-12T00:52:39;101191.94;;;24.80
15544;BMP180;7873;52.230;12.856;2023-08-12T00:55:06;101190.28;;;24.79
15544;BMP180;7873;52.230;12.856;2023-08-12T00:57:33;101191.13;;;24.79
15544;BMP180;7873;52.230;12.856;2023-08-12T01:00:02;101191.94;;;24.80
15544;BMP180;7873;52.230;12.856;2023-08-12T01:02:29;101188.44;;;24.79
15544;BMP180;7873;52.230;12.856;2023-08-12T01:04:57;101186.56;;;24.80
15544;BMP180;7873;52.230;12.856;2023-08-12T01:07:24;101176.66;;;24.80
15544;BMP180;7873;52.230;12.856;2023-08-12T01:09:51;101172.94;;;24.81
15544;BMP180;7873;52.230;12.856;2023-08-12T01:12:23;101176.66;;;24.80
15544;BMP180;7873;52.230;12.856;2023-08-12T01:14:55;101173.94;;;24.80
15544;BMP180;7873;52.230;12.856;2023-08-12T01:17:22;101169.56;;;24.79
15544;BMP180;7873;52.230;12.856;2023-08-12T01:19:49;101172.44;;;24.78
15544;BMP180;7873;52.230;12.856;2023-08-12T01:22:20;101168.91;;;24.77
15544;BMP180;7873;52.230;12.856;2023-08-12T01:24:48;101159.97;;;24.77
15544;BMP180;7873;52.230;12.856;2023-08-12T01:27:17;101158.16;;;24.77
15544;BMP180;7873;52.230;12.856;2023-08-12T01:29:47;101159.16;;;24.76
15544;BMP180;7873;52.230;12.856;2023-08-12T01:32:21;101155.63;;;24.76
15544;BMP180;7873;52.230;12.856;2023-08-12T01:34:53;101155.63;;;24.76
15544;BMP180;7873;52.230;12.856;2023-08-12T01:37:24;101145.88;;;24.75
15544;BMP180;7873;52.230;12.856;2023-08-12T01:39:54;101144.84;;;24.76
15544;BMP180;7873;52.230;12.856;2023-08-12T01:42:24;101149.41;;;24.75
15544;BMP180;7873;52.230;12.856;2023-08-12T01:44:51;101142.16;;;24.76
15544;BMP180;7873;52.230;12.856;2023-08-12T01:47:18;101144.03;;;24.75
15544;BMP180;7873;52.230;12.856;2023-08-12T01:49:44;101136.75;;;24.76
15544;BMP180;7873;52.230;12.856;2023-08-12T01:52:11;101135.09;;;24.75
15544;BMP180;7873;52.230;12.856;2023-08-12T01:54:38;101127.00;;;24.75
15544;BMP180;7873;52.230;12.856;2023-08-12T01:57:06;101129.69;;;24.75
15544;BMP180;7873;52.230;12.856;2023-08-12T01:59:33;101129.69;;;24.75
15544;BMP180;7873;52.230;12.856;2023-08-12T02:02:00;101129.69;;;24.75
15544;BMP180;7873;52.230;12.856;2023-08-12T02:04:27;101131.38;;;24.76
15544;BMP180;7873;52.230;12.856;2023-08-12T02:06:54;101127.00;;;24.75
15544;BMP180;7873;52.230;12.856;2023-08-12T02:09:21;101126.00;;;24.76
15544;BMP180;7873;52.230;12.856;2023-08-12T02:11:48;101130.34;;;24.77
15544;BMP180;7873;52.230;12.856;2023-08-12T02:14:16;101119.78;;;24.75
15544;BMP180;7873;52.230;12.856;2023-08-12T02:16:42;101117.09;;;24.75
15544;BMP180;7873;52.230;12.856;2023-08-12T02:19:09;101109.81;;;24.76
15544;BMP180;7873;52.230;12.856;2023-08-12T02:21:36;101109.81;;;24.76
15544;BMP180;7873;52.230;12.856;2023-08-12T02:24:03;101105.28;;;24.76
15544;BMP180;7873;52.230;12.856;2023-08-12T02:26:29;101112.34;;;24.77
15544;BMP180;7873;52.230;12.856;2023-08-12T02:28:56;101107.13;;;24.76
15544;BMP180;7873;52.230;12.856;2023-08-12T02:31:24;101103.63;;;24.75
15544;BMP180;7873;52.230;12.856;2023-08-12T02:33:51;101102.59;;;24.76
15544;BMP180;7873;52.230;12.856;2023-08-12T02:36:18;101106.31;;;24.75
15544;BMP180;7873;52.230;12.856;2023-08-12T02:38:44;101098.22;;;24.75
15544;BMP180;7873;52.230;12.856;2023-08-12T02:41:11;101094.69;;;24.75
15544;BMP180;7873;52.230;12.856;2023-08-12T02:43:38;101083.75;;;24.76
15544;BMP180;7873;52.230;12.856;2023-08-12T02:46:05;101087.25;;;24.77
15544;BMP180;7873;52.230;12.856;2023-08-12T02:48:34;101077.34;;;24.77
15544;BMP180;7873;52.230;12.856;2023-08-12T02:51:02;101087.09;;;24.78
15544;BMP180;7873;52.230;12.856;2023-08-12T02:53:28;101079.19;;;24.77
15544;BMP180;7873;52.230;12.856;2023-08-12T02:55:55;101070.28;;;24.76
15544;BMP180;7873;52.230;12.856;2023-08-12T02:58:22;101069.41;;;24.76
15544;BMP180;7873;52.230;12.856;2023-08-12T03:00:48;101065.72;;;24.77
15544;BMP180;7873;52.230;12.856;2023-08-12T03:03:15;101054.94;;;24.77
15544;BMP180;7873;52.230;12.856;2023-08-12T03:05:46;101047.72;;;24.77
15544;BMP180;7873;52.230;12.856;2023-08-12T03:08:13;101056.59;;;24.78
15544;BMP180;7873;52.230;12.856;2023-08-12T03:10:40;101068.25;;;24.78
15544;BMP180;7873;52.230;12.856;2023-08-12T03:13:07;101066.38;;;24.79
15544;BMP180;7873;52.230;12.856;2023-08-12T03:15:33;101060.97;;;24.79
15544;BMP180;7873;52.230;12.856;2023-08-12T03:18:00;101060.16;;;24.78
15544;BMP180;7873;52.230;12.856;2023-08-12T03:20:27;101053.75;;;24.79
15544;BMP180;7873;52.230;12.856;2023-08-12T03:22:55;101057.47;;;24.78
15544;BMP180;7873;52.230;12.856;2023-08-12T03:25:22;101051.88;;;24.80
15544;BMP180;7873;52.230;12.856;2023-08-12T03:27:48;101051.06;;;24.79
15544;BMP180;7873;52.230;12.856;2023-08-12T03:30:15;101054.78;;;24.78
15544;BMP180;7873;52.230;12.856;2023-08-12T03:32:42;101044.16;;;24.77
15544;BMP180;7873;52.230;12.856;2023-08-12T03:35:08;101056.59;;;24.78
15544;BMP180;7873;52.230;12.856;2023-08-12T03:37:35;101053.09;;;24.77
15544;BMP180;7873;52.230;12.856;2023-08-12T03:40:04;101050.56;;;24.76
15544;BMP180;7873;52.230;12.856;2023-08-12T03:42:31;101053.91;;;24.78
15544;BMP180;7873;52.230;12.856;2023-08-12T03:44:58;101052.25;;;24.77
15544;BMP180;7873;52.230;12.856;2023-08-12T03:47:25;101055.78;;;24.77
15544;BMP180;7873;52.230;12.856;2023-08-12T03:49:51;101053.91;;;24.78
15544;BMP180;7873;52.230;12.856;2023-08-12T03:52:18;101044.16;;;24.77
15544;BMP180;7873;52.230;12.856;2023-08-12T03:54:45;101039.63;;;24.77
15544;BMP180;7873;52.230;12.856;2023-08-12T03:57:13;101043.34;;;24.76
15544;BMP180;7873;52.230;12.856;2023-08-12T03:59:39;101039.63;;;24.77
15544;BMP180;7873;52.230;12.856;2023-08-12T04:02:06;101033.38;;;24.77
15544;BMP180;7873;52.230;12.856;2023-08-12T04:04:33;101028.00;;;24.77
15544;BMP180;7873;52.230;12.856;2023-08-12T04:06:59;101019.09;;;24.76
15544;BMP180;7873;52.230;12.856;2023-08-12T04:09:26;101021.59;;;24.78
15544;BMP180;7873;52.230;12.856;2023-08-12T04:11:53;101024.66;;;24.75
15544;BMP180;7873;52.230;12.856;2023-08-12T04:14:21;101026.16;;;24.77
15544;BMP180;7873;52.230;12.856;2023-08-12T04:16:47;101031.53;;;24.77
15544;BMP180;7873;52.230;12.856;2023-08-12T04:19:14;101025.50;;;24.75
15544;BMP180;7873;52.230;12.856;2023-08-12T04:21:41;101027.34;;;24.75
15544;BMP180;7873;52.230;12.856;2023-08-12T04:24:12;101026.81;;;24.79
15544;BMP180;7873;52.230;12.856;2023-08-12T04:26:39;101032.19;;;24.79
15544;BMP180;7873;52.230;12.856;2023-08-12T04:29:06;101026.16;;;24.77
15544;BMP180;7873;52.230;12.856;2023-08-12T04:31:34;101026.63;;;24.81
15544;BMP180;7873;52.230;12.856;2023-08-12T04:34:00;101023.28;;;24.79
15544;BMP180;7873;52.230;12.856;2023-08-12T04:36:27;101016.50;;;24.83
15544;BMP180;7873;52.230;12.856;2023-08-12T04:38:54;101016.69;;;24.81
15544;BMP180;7873;52.230;12.856;2023-08-12T04:41:20;101017.84;;;24.87
15544;BMP180;7873;52.230;12.856;2023-08-12T04:43:49;101016.88;;;24.94
15544;BMP180;7873;52.230;12.856;2023-08-12T04:46:16;101021.09;;;24.97
15544;BMP180;7873;52.230;12.856;2023-08-12T04:48:44;101022.59;;;24.99
15544;BMP180;7873;52.230;12.856;2023-08-12T04:51:11;101017.00;;;25.01
15544;BMP180;7873;52.230;12.856;2023-08-12T04:53:37;101014.31;;;25.01
15544;BMP180;7873;52.230;12.856;2023-08-12T04:56:04;101005.41;;;25.00
15544;BMP180;7873;52.230;12.856;2023-08-12T04:58:31;101008.75;;;25.02
15544;BMP180;7873;52.230;12.856;2023-08-12T05:00:57;101005.19;;;25.02
15544;BMP180;7873;52.230;12.856;2023-08-12T05:03:24;101002.34;;;25.03
15544;BMP180;7873;52.230;12.856;2023-08-12T05:05:52;101002.34;;;25.03
15544;BMP180;7873;52.230;12.856;2023-08-12T05:08:19;101009.41;;;25.04
15544;BMP180;7873;52.230;12.856;2023-08-12T05:10:46;101002.13;;;25.05
15544;BMP180;7873;52.230;12.856;2023-08-12T05:13:13;101000.28;;;25.05
15544;BMP180;7873;52.230;12.856;2023-08-12T05:15:40;100996.75;;;25.05
15544;BMP180;7873;52.230;12.856;2023-08-12T05:18:07;100996.75;;;25.05
15544;BMP180;7873;52.230;12.856;2023-08-12T05:20:33;100994.75;;;25.07
15544;BMP180;7873;52.230;12.856;2023-08-12T05:23:01;100993.03;;;25.06
15544;BMP180;7873;52.230;12.856;2023-08-12T05:25:28;100999.53;;;24.97
15544;BMP180;7873;52.230;12.856;2023-08-12T05:27:55;100999.06;;;24.93
15544;BMP180;7873;52.230;12.856;2023-08-12T05:30:21;100998.41;;;24.91
15544;BMP180;7873;52.230;12.856;2023-08-12T05:32:48;101005.47;;;24.92
15544;BMP180;7873;52.230;12.856;2023-08-12T05:35:15;101011.06;;;24.91
15544;BMP180;7873;52.230;12.856;2023-08-12T05:37:42;101014.19;;;24.94
15544;BMP180;7873;52.230;12.856;2023-08-12T05:40:10;101012.63;;;25.00
15544;BMP180;7873;52.230;12.856;2023-08-12T05:42:37;101003.81;;;25.06
15544;BMP180;7873;52.230;12.856;2023-08-12T05:45:04;101012.84;;;25.13
15544;BMP180;7873;52.230;12.856;2023-08-12T05:47:31;101012.00;;;25.12
15544;BMP180;7873;52.230;12.856;2023-08-12T05:49:58;101006.75;;;25.19
15544;BMP180;7873;52.230;12.856;2023-08-12T05:52:24;101003.38;;;25.17
15544;BMP180;7873;52.230;12.856;2023-08-12T05:54:51;101005.94;;;25.18
15544;BMP180;7873;52.230;12.856;2023-08-12T05:57:19;100999.69;;;25.18
15544;BMP180;7873;52.230;12.856;2023-08-12T05:59:46;100997.47;;;25.21
15544;BMP180;7873;52.230;12.856;2023-08-12T06:02:12;100996.25;;;25.24
15544;BMP180;7873;52.230;12.856;2023-08-12T06:04:39;100994.03;;;25.27
15544;BMP180;7873;52.230;12.856;2023-08-12T06:07:06;100997.09;;;25.24
15544;BMP180;7873;52.230;12.856;2023-08-12T06:09:32;101006.22;;;25.23
15544;BMP180;7873;52.230;12.856;2023-08-12T06:11:59;101001.28;;;25.27
15544;BMP180;7873;52.230;12.856;2023-08-12T06:14:27;101007.31;;;25.29
15544;BMP180;7873;52.230;12.856;2023-08-12T06:16:54;100992.91;;;25.22
15544;BMP180;7873;52.230;12.856;2023-08-12T06:19:20;101002.50;;;25.24
15544;BMP180;7873;52.230;12.856;2023-08-12T06:21:47;101002.13;;;25.27
15544;BMP180;7873;52.230;12.856;2023-08-12T06:24:14;100999.22;;;25.29
15544;BMP180;7873;52.230;12.856;2023-08-12T06:26:40;100997.91;;;25.25
15544;BMP180;7873;52.230;12.856;2023-08-12T06:29:07;100998.66;;;25.19
15544;BMP180;7873;52.230;12.856;2023-08-12T06:31:35;100997.59;;;25.05
15544;BMP180;7873;52.230;12.856;2023-08-12T06:34:02;100991.09;;;25.00
15544;BMP180;7873;52.230;12.856;2023-08-12T06:36:29;100983.56;;;24.95
15544;BMP180;7873;52.230;12.856;2023-08-12T06:38:55;100986.25;;;24.95
15544;BMP180;7873;52.230;12.856;2023-08-12T06:41:22;100996.56;;;24.92
15544;BMP180;7873;52.230;12.856;2023-08-12T06:43:49;100982.06;;;24.93
15544;BMP180;7873;52.230;12.856;2023-08-12T06:46:16;100981.22;;;24.92
15544;BMP180;7873;52.230;12.856;2023-08-12T06:48:44;100982.88;;;24.93
15544;BMP180;7873;52.230;12.856;2023-08-12T06:51:10;100980.56;;;24.90
15544;BMP180;7873;52.230;12.856;2023-08-12T06:53:37;100979.63;;;24.83
15544;BMP180;7873;52.230;12.856;2023-08-12T06:56:04;100974.13;;;24.77
15544;BMP180;7873;52.230;12.856;2023-08-12T06:58:31;100970.31;;;24.71
15544;BMP180;7873;52.230;12.856;2023-08-12T07:00:58;100971.81;;;24.74
15544;BMP180;7873;52.230;12.856;2023-08-12T07:03:25;100984.09;;;24.76
15544;BMP180;7873;52.230;12.856;2023-08-12T07:05:53;100969.75;;;24.76
15544;BMP180;7873;52.230;12.856;2023-08-12T07:08:20;100976.53;;;24.72
15544;BMP180;7873;52.230;12.856;2023-08-12T07:10:47;100973.19;;;24.70
15544;BMP180;7873;52.230;12.856;2023-08-12T07:13:13;100980.34;;;24.63
15544;BMP180;7873;52.230;12.856;2023-08-12T07:15:40;100977.06;;;24.67
15544;BMP180;7873;52.230;12.856;2023-08-12T07:18:07;100983.13;;;24.69
15544;BMP180;7873;52.230;12.856;2023-08-12T07:20:33;100982.66;;;24.66
15544;BMP180;7873;52.230;12.856;2023-08-12T07:23:01;100981.81;;;24.65
15544;BMP180;7873;52.230;12.856;2023-08-12T07:25:28;100977.72;;;24.69
15544;BMP180;7873;52.230;12.856;2023-08-12T07:27:55;100985.28;;;24.74
15544;BMP180;7873;52.230;12.856;2023-08-12T07:30:21;100979.59;;;24.69
15544;BMP180;7873;52.230;12.856;2023-08-12T07:32:48;100981.44;;;24.68
15544;BMP180;7873;52.230;12.856;2023-08-12T07:35:15;100974.88;;;24.71
15544;BMP180;7873;52.230;12.856;2023-08-12T07:37:41;100965.78;;;24.72
15544;BMP180;7873;52.230;12.856;2023-08-12T07:40:10;100964.09;;;24.71
15544;BMP180;7873;52.230;12.856;2023-08-12T07:42:38;100976.25;;;24.67
15544;BMP180;7873;52.230;12.856;2023-08-12T07:45:05;100972.63;;;24.60
15544;BMP180;7873;52.230;12.856;2023-08-12T07:47:32;100973.06;;;24.63
15544;BMP180;7873;52.230;12.856;2023-08-12T07:49:59;100967.31;;;24.66
15544;BMP180;7873;52.230;12.856;2023-08-12T07:52:26;100976.78;;;24.62
15544;BMP180;7873;52.230;12.856;2023-08-12T07:54:52;100973.28;;;24.62
15544;BMP180;7873;52.230;12.856;2023-08-12T07:57:20;100973.38;;;24.68
15544;BMP180;7873;52.230;12.856;2023-08-12T07:59:49;100972.47;;;24.76
15544;BMP180;7873;52.230;12.856;2023-08-12T08:02:16;100978.50;;;24.78
15544;BMP180;7873;52.230;12.856;2023-08-12T08:04:43;100974.97;;;24.77
15544;BMP180;7873;52.230;12.856;2023-08-12T08:07:10;100976.81;;;24.77
15544;BMP180;7873;52.230;12.856;2023-08-12T08:09:37;100983.72;;;24.79
15544;BMP180;7873;52.230;12.856;2023-08-12T08:12:04;100980.00;;;24.80
15544;BMP180;7873;52.230;12.856;2023-08-12T08:14:32;100980.16;;;24.79
15544;BMP180;7873;52.230;12.856;2023-08-12T08:16:59;100962.16;;;24.79
15544;BMP180;7873;52.230;12.856;2023-08-12T08:19:25;100966.25;;;24.75
15544;BMP180;7873;52.230;12.856;2023-08-12T08:21:52;100972.28;;;24.77
15544;BMP180;7873;52.230;12.856;2023-08-12T08:24:19;100978.03;;;24.74
15544;BMP180;7873;52.230;12.856;2023-08-12T08:26:46;100974.22;;;24.69
15544;BMP180;7873;52.230;12.856;2023-08-12T08:29:12;100963.53;;;24.61
15544;BMP180;7873;52.230;12.856;2023-08-12T08:31:40;100959.22;;;24.52
15544;BMP180;7873;52.230;12.856;2023-08-12T08:34:07;100956.81;;;24.57
15544;BMP180;7873;52.230;12.856;2023-08-12T08:36:35;100965.72;;;24.57
15544;BMP180;7873;52.230;12.856;2023-08-12T08:39:02;100962.97;;;24.65
15544;BMP180;7873;52.230;12.856;2023-08-12T08:41:30;100970.50;;;24.70
15544;BMP180;7873;52.230;12.856;2023-08-12T08:44:01;100965.94;;;24.70
15544;BMP180;7873;52.230;12.856;2023-08-12T08:46:29;100973.09;;;24.78
15544;BMP180;7873;52.230;12.856;2023-08-12T08:48:58;100960.13;;;24.81
15544;BMP180;7873;52.230;12.856;2023-08-12T08:51:25;100958.81;;;24.77
15544;BMP180;7873;52.230;12.856;2023-08-12T08:53:54;100950.38;;;24.80
15544;BMP180;7873;52.230;12.856;2023-08-12T08:56:21;100952.53;;;24.85
15544;BMP180;7873;52.230;12.856;2023-08-12T08:58:48;100947.13;;;24.85
15544;BMP180;7873;52.230;12.856;2023-08-12T09:01:17;100949.63;;;24.86
15544;BMP180;7873;52.230;12.856;2023-08-12T09:03:45;100959.88;;;24.91
15544;BMP180;7873;52.230;12.856;2023-08-12T09:06:13;100961.91;;;24.89
15544;BMP180;7873;52.230;12.856;2023-08-12T09:08:43;100963.84;;;24.95
15544;BMP180;7873;52.230;12.856;2023-08-12T09:11:12;100966.38;;;24.96
15544;BMP180;7873;52.230;12.856;2023-08-12T09:13:39;100965.38;;;24.97
15544;BMP180;7873;52.230;12.856;2023-08-12T09:16:05;100973.44;;;24.97
15544;BMP180;7873;52.230;12.856;2023-08-12T09:18:32;100977.81;;;24.98
15544;BMP180;7873;52.230;12.856;2023-08-12T09:20:59;100973.44;;;24.97
15544;BMP180;7873;52.230;12.856;2023-08-12T09:23:27;100970.16;;;24.87
15544;BMP180;7873;52.230;12.856;2023-08-12T09:25:54;100947.22;;;24.91
15544;BMP180;7873;52.230;12.856;2023-08-12T09:28:21;100938.31;;;24.91
15544;BMP180;7873;52.230;12.856;2023-08-12T09:30:50;100938.59;;;24.96
15544;BMP180;7873;52.230;12.856;2023-08-12T09:33:24;100945.47;;;24.98
15544;BMP180;7873;52.230;12.856;2023-08-12T09:35:51;100943.88;;;25.04
15544;BMP180;7873;52.230;12.856;2023-08-12T09:38:19;100942.22;;;25.03
15544;BMP180;7873;52.230;12.856;2023-08-12T09:40:47;100943.88;;;25.04
15544;BMP180;7873;52.230;12.856;2023-08-12T09:43:14;100943.88;;;25.04
15544;BMP180;7873;52.230;12.856;2023-08-12T09:45:44;100942.22;;;25.03
15544;BMP180;7873;52.230;12.856;2023-08-12T09:48:11;100933.09;;;25.04
15544;BMP180;7873;52.230;12.856;2023-08-12T09:50:37;100933.31;;;25.02
15544;BMP180;7873;52.230;12.856;2023-08-12T09:53:04;100925.59;;;24.99
15544;BMP180;7873;52.230;12.856;2023-08-12T09:55:32;100928.34;;;25.06
15544;BMP180;7873;52.230;12.856;2023-08-12T09:58:06;100931.63;;;25.01
15544;BMP180;7873;52.230;12.856;2023-08-12T10:00:33;100933.56;;;25.07
15544;BMP180;7873;52.230;12.856;2023-08-12T10:03:00;100947.31;;;25.12
15544;BMP180;7873;52.230;12.856;2023-08-12T10:05:28;100948.19;;;25.13
15544;BMP180;7873;52.230;12.856;2023-08-12T10:07:58;100952.34;;;25.15
15544;BMP180;7873;52.230;12.856;2023-08-12T10:10:27;100951.53;;;25.15
15544;BMP180;7873;52.230;12.856;2023-08-12T10:12:54;100947.91;;;25.08
15544;BMP180;7873;52.230;12.856;2023-08-12T10:15:22;100946.94;;;25.15
15544;BMP180;7873;52.230;12.856;2023-08-12T10:17:51;100942.59;;;25.14
15544;BMP180;7873;52.230;12.856;2023-08-12T10:20:20;100937.69;;;25.18
15544;BMP180;7873;52.230;12.856;2023-08-12T10:22:47;100936.00;;;25.17
15544;BMP180;7873;52.230;12.856;2023-08-12T10:25:17;100930.91;;;25.22
15544;BMP180;7873;52.230;12.856;2023-08-12T10:27:44;100933.22;;;25.25
15544;BMP180;7873;52.230;12.856;2023-08-12T10:30:12;100936.13;;;25.23
15544;BMP180;7873;52.230;12.856;2023-08-12T10:32:40;100937.59;;;25.26
15544;BMP180;7873;52.230;12.856;2023-08-12T10:35:08;100941.31;;;25.25
15544;BMP180;7873;52.230;12.856;2023-08-12T10:37:35;100938.06;;;25.29
15544;BMP180;7873;52.230;12.856;2023-08-12T10:40:03;100936.03;;;25.31
15544;BMP180;7873;52.230;12.856;2023-08-12T10:42:43;100922.16;;;25.34
15544;BMP180;7873;52.230;12.856;2023-08-12T10:45:11;100907.41;;;25.30
15544;BMP180;7873;52.230;12.856;2023-08-12T10:47:40;100921.03;;;25.29
15544;BMP180;7873;52.230;12.856;2023-08-12T10:50:17;100948.69;;;25.31
15544;BMP180;7873;52.230;12.856;2023-08-12T10:52:44;100948.47;;;25.32
15544;BMP180;7873;52.230;12.856;2023-08-12T10:55:19;100956.28;;;25.27
15544;BMP180;7873;52.230;12.856;2023-08-12T10:57:47;100969.78;;;25.27
15544;BMP180;7873;52.230;12.856;2023-08-12T11:00:15;100964.19;;;25.29
15544;BMP180;7873;52.230;12.856;2023-08-12T11:02:49;100984.00;;;25.21
15544;BMP180;7873;52.230;12.856;2023-08-12T11:05:16;100978.13;;;25.18
15544;BMP180;7873;52.230;12.856;2023-08-12T11:07:46;100972.16;;;25.08
15544;BMP180;7873;52.230;12.856;2023-08-12T11:10:15;100977.88;;;24.90
15544;BMP180;7873;52.230;12.856;2023-08-12T11:12:53;100977.50;;;24.93
15544;BMP180;7873;52.230;12.856;2023-08-12T11:15:29;100979.19;;;24.94
15544;BMP180;7873;52.230;12.856;2023-08-12T11:17:58;100978.38;;;25.08
15544;BMP180;7873;52.230;12.856;2023-08-12T11:20:27;100978.84;;;25.12
15544;BMP180;7873;52.230;12.856;2023-08-12T11:22:54;100973.91;;;25.15
15544;BMP180;7873;52.230;12.856;2023-08-12T11:25:21;100966.59;;;25.24
15544;BMP180;7873;52.230;12.856;2023-08-12T11:27:48;100961.84;;;25.26
15544;BMP180;7873;52.230;12.856;2023-08-12T11:30:16;100962.72;;;25.26
15544;BMP180;7873;52.230;12.856;2023-08-12T11:32:45;100958.06;;;25.20
15544;BMP180;7873;52.230;12.856;2023-08-12T11:35:14;100943.38;;;25.23
15544;BMP180;7873;52.230;12.856;2023-08-12T11:37:42;100924.13;;;25.26
15544;BMP180;7873;52.230;12.856;2023-08-12T11:40:10;100920.06;;;25.30
15544;BMP180;7873;52.230;12.856;2023-08-12T11:42:41;100896.34;;;25.25
15544;BMP180;7873;52.230;12.856;2023-08-12T11:45:08;100884.06;;;25.23
15544;BMP180;7873;52.230;12.856;2023-08-12T11:47:35;100872.91;;;25.26
15544;BMP180;7873;52.230;12.856;2023-08-12T11:50:02;100848.66;;;25.26
15544;BMP180;7873;52.230;12.856;2023-08-12T11:52:31;100847.63;;;25.27
15544;BMP180;7873;52.230;12.856;2023-08-12T11:54:58;100848.47;;;25.27
15544;BMP180;7873;52.230;12.856;2023-08-12T11:57:26;100852.84;;;25.28
15544;BMP180;7873;52.230;12.856;2023-08-12T11:59:53;100857.47;;;25.34
15544;BMP180;7873;52.230;12.856;2023-08-12T12:02:24;100848.56;;;25.34
15544;BMP180;7873;52.230;12.856;2023-08-12T12:04:51;100842.44;;;25.25
15544;BMP180;7873;52.230;12.856;2023-08-12T12:07:20;100839.66;;;25.19
15544;BMP180;7873;52.230;12.856;2023-08-12T12:09:50;100834.41;;;25.17
15544;BMP180;7873;52.230;12.856;2023-08-12T12:12:17;100837.69;;;25.13
15544;BMP180;7873;52.230;12.856;2023-08-12T12:14:46;100838.63;;;25.20
15544;BMP180;7873;52.230;12.856;2023-08-12T12:17:14;100837.97;;;25.18
15544;BMP180;7873;52.230;12.856;2023-08-12T12:19:41;100835.53;;;25.08
15544;BMP180;7873;52.230;12.856;2023-08-12T12:22:08;100841.31;;;25.05
15544;BMP180;7873;52.230;12.856;2023-08-12T12:24:44;100832.41;;;25.19
15544;BMP180;7873;52.230;12.856;2023-08-12T12:27:13;100836.50;;;25.30
15544;BMP180;7873;52.230;12.856;2023-08-12T12:29:40;100831.16;;;25.36
15544;BMP180;7873;52.230;12.856;2023-08-12T12:32:07;100828.91;;;25.40
15544;BMP180;7873;52.230;12.856;2023-08-12T12:34:34;100830.66;;;25.47
15544;BMP180;7873;52.230;12.856;2023-08-12T12:37:01;100831.69;;;25.46
15544;BMP180;7873;52.230;12.856;2023-08-12T12:39:27;100831.22;;;25.43
15544;BMP180;7873;52.230;12.856;2023-08-12T12:41:54;100824.72;;;25.37
15544;BMP180;7873;52.230;12.856;2023-08-12T12:44:22;100822.13;;;25.44
15544;BMP180;7873;52.230;12.856;2023-08-12T12:46:49;100821.31;;;25.43
15544;BMP180;7873;52.230;12.856;2023-08-12T12:49:15;100815.91;;;25.43
15544;BMP180;7873;52.230;12.856;2023-08-12T12:51:42;100806.78;;;25.44
15544;BMP180;7873;52.230;12.856;2023-08-12T12:54:09;100805.69;;;25.39
15544;BMP180;7873;52.230;12.856;2023-08-12T12:56:35;100811.91;;;25.39
15544;BMP180;7873;52.230;12.856;2023-08-12T12:59:02;100799.09;;;25.41
15544;BMP180;7873;52.230;12.856;2023-08-12T13:01:30;100804.47;;;25.41
15544;BMP180;7873;52.230;12.856;2023-08-12T13:03:57;100799.25;;;25.40
15544;BMP180;7873;52.230;12.856;2023-08-12T13:06:24;100790.31;;;25.39
15544;BMP180;7873;52.230;12.856;2023-08-12T13:08:50;100789.88;;;25.36
15544;BMP180;7873;52.230;12.856;2023-08-12T13:11:17;100785.31;;;25.36
15544;BMP180;7873;52.230;12.856;2023-08-12T13:13:44;100779.84;;;25.44
15544;BMP180;7873;52.230;12.856;2023-08-12T13:16:10;100772.16;;;25.48
15544;BMP180;7873;52.230;12.856;2023-08-12T13:18:38;100770.13;;;25.50
15544;BMP180;7873;52.230;12.856;2023-08-12T13:21:05;100769.94;;;25.51
15544;BMP180;7873;52.230;12.856;2023-08-12T13:23:32;100762.66;;;25.52
15544;BMP180;7873;52.230;12.856;2023-08-12T13:25:58;100762.94;;;25.57
15544;BMP180;7873;52.230;12.856;2023-08-12T13:28:25;100760.50;;;25.61
15544;BMP180;7873;52.230;12.856;2023-08-12T13:30:52;100759.00;;;25.59
15544;BMP180;7873;52.230;12.856;2023-08-12T13:33:18;100751.78;;;25.59
15544;BMP180;7873;52.230;12.856;2023-08-12T13:35:46;100757.97;;;25.60
15544;BMP180;7873;52.230;12.856;2023-08-12T13:38:13;100754.25;;;25.61
15544;BMP180;7873;52.230;12.856;2023-08-12T13:40:39;100748.88;;;25.61
15544;BMP180;7873;52.230;12.856;2023-08-12T13:43:06;100745.78;;;25.64
15544;BMP180;7873;52.230;12.856;2023-08-12T13:45:33;100747.66;;;25.63
15544;BMP180;7873;52.230;12.856;2023-08-12T13:48:00;100741.06;;;25.66
15544;BMP180;7873;52.230;12.856;2023-08-12T13:50:26;100748.94;;;25.67
15544;BMP180;7873;52.230;12.856;2023-08-12T13:52:54;100740.03;;;25.67
15544;BMP180;7873;52.230;12.856;2023-08-12T13:55:21;100740.03;;;25.67
15544;BMP180;7873;52.230;12.856;2023-08-12T13:57:48;100740.84;;;25.67